sensor_id;sensor_type;location;lat;lon;timestamp;pressure;altitude;pressure_sealevel;temperature;humidity
73564;BME280;61834;50.196;6.454;2022-09-09T00:00:15;95838.88;;;21.06;56.19
73564;BME280;61834;50.196;6.454;2022-09-09T00:03:02;95838.88;;;21.06;56.56
73564;BME280;61834;50.196;6.454;2022-09-09T00:11:16;95827.75;;;21.06;56.17
73564;BME280;61834;50.196;6.454;2022-09-09T00:13:53;95827.00;;;21.06;56.35
73564;BME280;61834;50.196;6.454;2022-09-09T00:16:25;95826.22;;;21.05;56.49
73564;BME280;61834;50.196;6.454;2022-09-09T00:19:11;95827.00;;;21.06;56.15
73564;BME280;61834;50.196;6.454;2022-09-09T00:21:47;95821.41;;;21.06;56.25
73564;BME280;61834;50.196;6.454;2022-09-09T00:24:34;95808.72;;;21.05;56.18
73564;BME280;61834;50.196;6.454;2022-09-09T00:32:37;95824.66;;;21.04;56.32
73564;BME280;61834;50.196;6.454;2022-09-09T00:38:16;95828.22;;;21.05;56.14
73564;BME280;61834;50.196;6.454;2022-09-09T00:40:58;95829.00;;;21.05;56.13
73564;BME280;61834;50.196;6.454;2022-09-09T00:43:28;95829.00;;;21.05;55.94
73564;BME280;61834;50.196;6.454;2022-09-09T00:49:36;95827.00;;;21.06;56.03
73564;BME280;61834;50.196;6.454;2022-09-09T00:57:35;95836.56;;;21.05;56.12
73564;BME280;61834;50.196;6.454;2022-09-09T01:00:26;95838.13;;;21.06;56.37
73564;BME280;61834;50.196;6.454;2022-09-09T01:05:36;95833.78;;;21.05;56.33
73564;BME280;61834;50.196;6.454;2022-09-09T01:10:59;95823.41;;;21.05;56.10
73564;BME280;61834;50.196;6.454;2022-09-09T01:13:32;95819.09;;;21.04;56.26
73564;BME280;61834;50.196;6.454;2022-09-09T01:16:04;95820.63;;;21.05;56.39
73564;BME280;61834;50.196;6.454;2022-09-09T01:18:40;95826.69;;;21.04;56.32
73564;BME280;61834;50.196;6.454;2022-09-09T01:24:05;95825.44;;;21.05;56.32
73564;BME280;61834;50.196;6.454;2022-09-09T01:26:48;95821.88;;;21.04;56.15
73564;BME280;61834;50.196;6.454;2022-09-09T01:29:22;95829.00;;;21.05;56.23
73564;BME280;61834;50.196;6.454;2022-09-09T01:31:57;95830.25;;;21.04;56.00
73564;BME280;61834;50.196;6.454;2022-09-09T01:34:25;95829.47;;;21.04;56.01
73564;BME280;61834;50.196;6.454;2022-09-09T01:39:22;95821.09;;;21.04;56.37
73564;BME280;61834;50.196;6.454;2022-09-09T01:41:56;95821.88;;;21.04;56.22
73564;BME280;61834;50.196;6.454;2022-09-09T01:44:23;95829.47;;;21.04;56.30
73564;BME280;61834;50.196;6.454;2022-09-09T01:46:49;95823.09;;;21.03;55.93
73564;BME280;61834;50.196;6.454;2022-09-09T01:49:18;95823.88;;;21.04;56.08
73564;BME280;61834;50.196;6.454;2022-09-09T01:51:45;95819.56;;;21.03;55.92
73564;BME280;61834;50.196;6.454;2022-09-09T01:54:13;95811.97;;;21.03;56.14
73564;BME280;61834;50.196;6.454;2022-09-09T01:59:55;95811.97;;;21.03;56.24
73564;BME280;61834;50.196;6.454;2022-09-09T02:02:29;95821.56;;;21.02;56.29
73564;BME280;61834;50.196;6.454;2022-09-09T02:07:38;95810.44;;;21.02;56.04
73564;BME280;61834;50.196;6.454;2022-09-09T02:10:22;95822.34;;;21.03;55.97
73564;BME280;61834;50.196;6.454;2022-09-09T02:13:05;95822.34;;;21.03;56.05
73564;BME280;61834;50.196;6.454;2022-09-09T02:18:35;95811.97;;;21.03;56.19
73564;BME280;61834;50.196;6.454;2022-09-09T02:21:05;95813.22;;;21.02;56.17
73564;BME280;61834;50.196;6.454;2022-09-09T02:23:32;95821.56;;;21.02;56.07
73564;BME280;61834;50.196;6.454;2022-09-09T02:26:01;95812.44;;;21.02;55.98
73564;BME280;61834;50.196;6.454;2022-09-09T02:28:29;95806.09;;;21.01;56.04
73564;BME280;61834;50.196;6.454;2022-09-09T02:30:57;95805.34;;;21.01;56.26
73564;BME280;61834;50.196;6.454;2022-09-09T02:33:45;95808.88;;;21.01;56.18
73564;BME280;61834;50.196;6.454;2022-09-09T02:36:14;95806.88;;;21.02;56.21
73564;BME280;61834;50.196;6.454;2022-09-09T02:38:45;95817.22;;;21.01;56.15
73564;BME280;61834;50.196;6.454;2022-09-09T02:41:18;95812.91;;;21.00;56.20
73564;BME280;61834;50.196;6.454;2022-09-09T02:43:44;95808.13;;;21.01;55.96
73564;BME280;61834;50.196;6.454;2022-09-09T02:49:04;95794.22;;;21.01;56.24
73564;BME280;61834;50.196;6.454;2022-09-09T02:52:07;95791.44;;;21.01;56.32
73564;BME280;61834;50.196;6.454;2022-09-09T02:54:37;95797.00;;;21.01;56.06
73564;BME280;61834;50.196;6.454;2022-09-09T02:57:12;95775.19;;;20.99;55.92
73564;BME280;61834;50.196;6.454;2022-09-09T02:59:40;95779.50;;;21.00;55.98
73564;BME280;61834;50.196;6.454;2022-09-09T03:02:06;95790.66;;;21.00;56.12
73564;BME280;61834;50.196;6.454;2022-09-09T03:04:32;95782.31;;;21.00;56.14
73564;BME280;61834;50.196;6.454;2022-09-09T03:06:59;95791.44;;;21.01;56.07
73564;BME280;61834;50.196;6.454;2022-09-09T03:09:25;95799.00;;;21.00;56.02
73564;BME280;61834;50.196;6.454;2022-09-09T03:11:55;95789.88;;;21.00;56.26
73564;BME280;61834;50.196;6.454;2022-09-09T03:14:22;95783.53;;;20.99;56.18
73564;BME280;61834;50.196;6.454;2022-09-09T03:16:51;95786.78;;;20.98;56.16
73564;BME280;61834;50.196;6.454;2022-09-09T03:19:17;95787.09;;;21.00;55.99
73564;BME280;61834;50.196;6.454;2022-09-09T03:21:44;95799.47;;;20.99;55.94
73564;BME280;61834;50.196;6.454;2022-09-09T03:24:14;95804.56;;;21.00;55.96
73564;BME280;61834;50.196;6.454;2022-09-09T03:26:40;95798.22;;;21.00;56.19
73564;BME280;61834;50.196;6.454;2022-09-09T03:29:11;95799.47;;;20.99;55.87
73564;BME280;61834;50.196;6.454;2022-09-09T03:31:39;95807.03;;;20.98;56.18
73564;BME280;61834;50.196;6.454;2022-09-09T03:34:05;95803.50;;;20.98;55.80
73564;BME280;61834;50.196;6.454;2022-09-09T03:36:33;95805.03;;;20.99;56.11
73564;BME280;61834;50.196;6.454;2022-09-09T03:38:58;95802.25;;;20.99;56.01
73564;BME280;61834;50.196;6.454;2022-09-09T03:41:26;95797.94;;;20.98;55.96
73564;BME280;61834;50.196;6.454;2022-09-09T03:43:53;95794.38;;;20.97;55.91
73564;BME280;61834;50.196;6.454;2022-09-09T03:46:21;95789.59;;;20.98;56.12
73564;BME280;61834;50.196;6.454;2022-09-09T03:48:47;95793.91;;;20.99;56.02
73564;BME280;61834;50.196;6.454;2022-09-09T03:51:14;95791.59;;;20.97;55.89
73564;BME280;61834;50.196;6.454;2022-09-09T03:53:40;95784.75;;;20.98;56.08
73564;BME280;61834;50.196;6.454;2022-09-09T03:56:06;95788.81;;;20.97;55.93
73564;BME280;61834;50.196;6.454;2022-09-09T03:58:33;95792.38;;;20.98;56.02
73564;BME280;61834;50.196;6.454;2022-09-09T04:01:05;95793.56;;;20.97;55.88
73564;BME280;61834;50.196;6.454;2022-09-09T04:03:31;95786.00;;;20.97;55.82
73564;BME280;61834;50.196;6.454;2022-09-09T04:05:59;95785.22;;;20.97;55.80
73564;BME280;61834;50.196;6.454;2022-09-09T04:08:27;95786.47;;;20.96;55.90
73564;BME280;61834;50.196;6.454;2022-09-09T04:10:54;95783.66;;;20.96;56.12
73564;BME280;61834;50.196;6.454;2022-09-09T04:13:23;95784.41;;;20.96;56.16
73564;BME280;61834;50.196;6.454;2022-09-09T04:15:54;95785.22;;;20.97;55.88
73564;BME280;61834;50.196;6.454;2022-09-09T04:18:21;95788.81;;;20.97;55.95
73564;BME280;61834;50.196;6.454;2022-09-09T04:20:48;95799.13;;;20.97;56.14
73564;BME280;61834;50.196;6.454;2022-09-09T04:23:16;95797.59;;;20.96;55.96
73564;BME280;61834;50.196;6.454;2022-09-09T04:25:48;95795.56;;;20.96;56.03
73564;BME280;61834;50.196;6.454;2022-09-09T04:28:15;95798.34;;;20.96;55.84
73564;BME280;61834;50.196;6.454;2022-09-09T04:30:42;95791.25;;;20.95;55.89
73564;BME280;61834;50.196;6.454;2022-09-09T04:33:09;95796.81;;;20.95;56.11
73564;BME280;61834;50.196;6.454;2022-09-09T04:35:36;95792.78;;;20.96;56.12
73564;BME280;61834;50.196;6.454;2022-09-09T04:38:02;95794.81;;;20.96;55.94
73564;BME280;61834;50.196;6.454;2022-09-09T04:40:31;95789.25;;;20.96;56.06
73564;BME280;61834;50.196;6.454;2022-09-09T04:42:59;95801.13;;;20.96;55.83
73564;BME280;61834;50.196;6.454;2022-09-09T04:45:24;95801.13;;;20.96;55.84
73564;BME280;61834;50.196;6.454;2022-09-09T04:47:53;95798.81;;;20.95;56.01
73564;BME280;61834;50.196;6.454;2022-09-09T04:50:19;95803.16;;;20.96;55.94
73564;BME280;61834;50.196;6.454;2022-09-09T04:52:46;95799.59;;;20.95;56.20
73564;BME280;61834;50.196;6.454;2022-09-09T04:55:12;95810.72;;;20.95;56.21
73564;BME280;61834;50.196;6.454;2022-09-09T04:57:40;95811.50;;;20.96;56.13
73564;BME280;61834;50.196;6.454;2022-09-09T05:00:10;95814.28;;;20.96;56.13
73564;BME280;61834;50.196;6.454;2022-09-09T05:02:39;95813.50;;;20.95;55.72
73564;BME280;61834;50.196;6.454;2022-09-09T05:05:06;95820.31;;;20.94;55.83
73564;BME280;61834;50.196;6.454;2022-09-09T05:07:32;95820.31;;;20.94;56.04
73564;BME280;61834;50.196;6.454;2022-09-09T05:09:58;95820.31;;;20.94;55.83
73564;BME280;61834;50.196;6.454;2022-09-09T05:12:24;95821.06;;;20.95;55.83
73564;BME280;61834;50.196;6.454;2022-09-09T05:14:54;95823.84;;;20.95;56.14
73564;BME280;61834;50.196;6.454;2022-09-09T05:17:20;95827.41;;;20.95;56.05
73564;BME280;61834;50.196;6.454;2022-09-09T05:19:46;95819.53;;;20.94;55.87
73564;BME280;61834;50.196;6.454;2022-09-09T05:22:13;95821.84;;;20.95;56.01
73564;BME280;61834;50.196;6.454;2022-09-09T05:24:44;95816.75;;;20.94;56.10
73564;BME280;61834;50.196;6.454;2022-09-09T05:27:09;95818.75;;;20.93;56.15
73564;BME280;61834;50.196;6.454;2022-09-09T05:29:38;95829.41;;;20.95;55.98
73564;BME280;61834;50.196;6.454;2022-09-09T05:32:09;95816.75;;;20.94;55.96
73564;BME280;61834;50.196;6.454;2022-09-09T05:34:35;95817.22;;;20.92;55.71
73564;BME280;61834;50.196;6.454;2022-09-09T05:37:03;95821.53;;;20.93;55.96
73564;BME280;61834;50.196;6.454;2022-09-09T05:39:30;95827.88;;;20.94;55.68
73564;BME280;61834;50.196;6.454;2022-09-09T05:41:58;95827.88;;;20.94;55.96
73564;BME280;61834;50.196;6.454;2022-09-09T05:44:23;95822.78;;;20.92;56.01
73564;BME280;61834;50.196;6.454;2022-09-09T05:46:52;95823.56;;;20.93;56.04
73564;BME280;61834;50.196;6.454;2022-09-09T05:49:25;95821.53;;;20.93;55.90
73564;BME280;61834;50.196;6.454;2022-09-09T05:51:51;95824.31;;;20.93;55.86
73564;BME280;61834;50.196;6.454;2022-09-09T05:54:18;95825.09;;;20.94;55.87
73564;BME280;61834;50.196;6.454;2022-09-09T05:56:47;95832.66;;;20.93;55.83
73564;BME280;61834;50.196;6.454;2022-09-09T05:59:16;95822.31;;;20.94;56.02
73564;BME280;61834;50.196;6.454;2022-09-09T06:01:41;95837.47;;;20.93;55.94
73564;BME280;61834;50.196;6.454;2022-09-09T06:04:13;95827.09;;;20.93;55.75
73564;BME280;61834;50.196;6.454;2022-09-09T06:06:39;95820.00;;;20.92;56.05
73564;BME280;61834;50.196;6.454;2022-09-09T06:09:12;95825.09;;;20.94;56.00
73564;BME280;61834;50.196;6.454;2022-09-09T06:11:40;95831.91;;;20.93;55.76
73564;BME280;61834;50.196;6.454;2022-09-09T06:14:07;95823.56;;;20.93;55.92
73564;BME280;61834;50.196;6.454;2022-09-09T06:16:33;95829.88;;;20.93;55.75
73564;BME280;61834;50.196;6.454;2022-09-09T06:19:00;95826.34;;;20.93;55.97
73564;BME280;61834;50.196;6.454;2022-09-09T06:21:30;95819.53;;;20.94;56.13
73564;BME280;61834;50.196;6.454;2022-09-09T06:23:57;95815.97;;;20.93;55.66
73564;BME280;61834;50.196;6.454;2022-09-09T06:26:33;95815.97;;;20.93;55.68
73564;BME280;61834;50.196;6.454;2022-09-09T06:29:01;95811.19;;;20.94;55.83
73564;BME280;61834;50.196;6.454;2022-09-09T06:31:30;95807.63;;;20.93;55.80
73564;BME280;61834;50.196;6.454;2022-09-09T06:34:00;95807.63;;;20.93;55.89
73564;BME280;61834;50.196;6.454;2022-09-09T06:36:32;95805.31;;;20.92;55.85
73564;BME280;61834;50.196;6.454;2022-09-09T06:38:59;95801.31;;;20.93;56.07
73564;BME280;61834;50.196;6.454;2022-09-09T06:41:26;95808.88;;;20.92;56.10
73564;BME280;61834;50.196;6.454;2022-09-09T06:43:53;95804.84;;;20.93;55.87
73564;BME280;61834;50.196;6.454;2022-09-09T06:46:29;95802.06;;;20.93;55.67
73564;BME280;61834;50.196;6.454;2022-09-09T06:48:57;95802.06;;;20.93;55.69
73564;BME280;61834;50.196;6.454;2022-09-09T06:51:29;95807.16;;;20.95;55.67
73564;BME280;61834;50.196;6.454;2022-09-09T06:53:57;95808.41;;;20.94;55.78
73564;BME280;61834;50.196;6.454;2022-09-09T06:56:29;95814.75;;;20.94;55.74
73564;BME280;61834;50.196;6.454;2022-09-09T06:58:58;95814.75;;;20.94;55.60
73564;BME280;61834;50.196;6.454;2022-09-09T07:01:30;95809.94;;;20.95;55.89
73564;BME280;61834;50.196;6.454;2022-09-09T07:03:59;95816.28;;;20.95;55.74
73564;BME280;61834;50.196;6.454;2022-09-09T07:06:31;95816.28;;;20.95;55.58
73564;BME280;61834;50.196;6.454;2022-09-09T07:09:00;95826.63;;;20.95;55.66
73564;BME280;61834;50.196;6.454;2022-09-09T07:11:30;95823.09;;;20.94;55.78
73564;BME280;61834;50.196;6.454;2022-09-09T07:13:57;95822.31;;;20.94;55.63
73564;BME280;61834;50.196;6.454;2022-09-09T07:16:24;95819.53;;;20.94;55.80
73564;BME280;61834;50.196;6.454;2022-09-09T07:18:51;95820.78;;;20.93;55.69
73564;BME280;61834;50.196;6.454;2022-09-09T07:21:18;95825.88;;;20.94;55.81
73564;BME280;61834;50.196;6.454;2022-09-09T07:23:45;95823.09;;;20.94;55.71
73564;BME280;61834;50.196;6.454;2022-09-09T07:26:14;95822.31;;;20.94;55.76
73564;BME280;61834;50.196;6.454;2022-09-09T07:28:40;95825.09;;;20.94;55.88
73564;BME280;61834;50.196;6.454;2022-09-09T07:31:13;95831.44;;;20.94;55.69
73564;BME280;61834;50.196;6.454;2022-09-09T07:33:41;95828.66;;;20.94;55.71
73564;BME280;61834;50.196;6.454;2022-09-09T07:38:39;95834.22;;;20.94;55.75
73564;BME280;61834;50.196;6.454;2022-09-09T07:41:07;95841.78;;;20.94;55.52
73564;BME280;61834;50.196;6.454;2022-09-09T07:43:38;95836.22;;;20.94;55.65
73564;BME280;61834;50.196;6.454;2022-09-09T07:46:05;95843.78;;;20.93;55.60
73564;BME280;61834;50.196;6.454;2022-09-09T07:48:31;95849.34;;;20.93;55.55
73564;BME280;61834;50.196;6.454;2022-09-09T07:51:19;95847.81;;;20.92;55.69
73564;BME280;61834;50.196;6.454;2022-09-09T07:53:51;95862.66;;;20.80;55.06
73564;BME280;61834;50.196;6.454;2022-09-09T07:56:18;95850.28;;;20.81;54.88
73564;BME280;61834;50.196;6.454;2022-09-09T07:58:47;95862.19;;;20.82;54.94
73564;BME280;61834;50.196;6.454;2022-09-09T08:01:16;95864.97;;;20.82;55.13
73564;BME280;61834;50.196;6.454;2022-09-09T08:03:44;95856.31;;;20.80;55.05
73564;BME280;61834;50.196;6.454;2022-09-09T08:06:10;95862.66;;;20.80;55.32
73564;BME280;61834;50.196;6.454;2022-09-09T08:08:38;95869.00;;;20.81;54.92
73564;BME280;61834;50.196;6.454;2022-09-09T08:11:07;95860.34;;;20.79;54.94
73564;BME280;61834;50.196;6.454;2022-09-09T08:13:36;95858.00;;;20.77;55.01
73564;BME280;61834;50.196;6.454;2022-09-09T08:16:24;95870.69;;;20.78;54.70
73564;BME280;61834;50.196;6.454;2022-09-09T08:18:51;95860.78;;;20.77;54.75
73564;BME280;61834;50.196;6.454;2022-09-09T08:21:23;95850.44;;;20.78;55.00
73564;BME280;61834;50.196;6.454;2022-09-09T08:23:51;95848.09;;;20.76;55.08
73564;BME280;61834;50.196;6.454;2022-09-09T08:26:22;95854.75;;;20.79;54.75
73564;BME280;61834;50.196;6.454;2022-09-09T08:28:49;95870.69;;;20.78;54.73
73564;BME280;61834;50.196;6.454;2022-09-09T08:33:44;95875.91;;;20.76;54.90
73564;BME280;61834;50.196;6.454;2022-09-09T08:36:19;95863.25;;;20.75;54.88
73564;BME280;61834;50.196;6.454;2022-09-09T08:38:53;95876.09;;;20.73;54.92
73564;BME280;61834;50.196;6.454;2022-09-09T08:41:38;95861.72;;;20.74;55.02
73564;BME280;61834;50.196;6.454;2022-09-09T08:49:59;95866.03;;;20.75;54.84
73564;BME280;61834;50.196;6.454;2022-09-09T08:55:21;95859.69;;;20.75;54.64
73564;BME280;61834;50.196;6.454;2022-09-09T08:57:52;95869.59;;;20.76;54.98
73564;BME280;61834;50.196;6.454;2022-09-09T09:00:19;95874.38;;;20.75;54.57
73564;BME280;61834;50.196;6.454;2022-09-09T09:05:44;95875.63;;;20.74;54.85
73564;BME280;61834;50.196;6.454;2022-09-09T09:08:27;95884.72;;;20.75;54.85
73564;BME280;61834;50.196;6.454;2022-09-09T09:10:58;95873.59;;;20.75;54.99
73564;BME280;61834;50.196;6.454;2022-09-09T09:19:13;95877.63;;;20.74;54.92
73564;BME280;61834;50.196;6.454;2022-09-09T09:24:39;95876.38;;;20.75;54.99
73564;BME280;61834;50.196;6.454;2022-09-09T09:27:16;95876.09;;;20.73;54.74
73564;BME280;61834;50.196;6.454;2022-09-09T09:29:49;95873.31;;;20.73;54.98
73564;BME280;61834;50.196;6.454;2022-09-09T09:32:18;95874.53;;;20.72;55.02
73564;BME280;61834;50.196;6.454;2022-09-09T09:34:54;95875.31;;;20.72;54.96
73564;BME280;61834;50.196;6.454;2022-09-09T09:37:32;95875.78;;;20.71;54.70
73564;BME280;61834;50.196;6.454;2022-09-09T09:40:15;95884.13;;;20.71;54.83
73564;BME280;61834;50.196;6.454;2022-09-09T09:42:58;95891.69;;;20.70;54.98
73564;BME280;61834;50.196;6.454;2022-09-09T09:47:59;95891.69;;;20.70;54.97
73564;BME280;61834;50.196;6.454;2022-09-09T09:50:25;95875.78;;;20.71;55.15
73564;BME280;61834;50.196;6.454;2022-09-09T09:53:00;95881.81;;;20.69;55.18
73564;BME280;61834;50.196;6.454;2022-09-09T09:55:30;95879.03;;;20.69;55.00
73564;BME280;61834;50.196;6.454;2022-09-09T09:58:06;95886.59;;;20.69;55.33
73564;BME280;61834;50.196;6.454;2022-09-09T10:00:47;95886.91;;;20.71;55.19
73564;BME280;61834;50.196;6.454;2022-09-09T10:03:29;95881.34;;;20.71;55.01
73564;BME280;61834;50.196;6.454;2022-09-09T10:05:57;95888.91;;;20.70;55.15
73564;BME280;61834;50.196;6.454;2022-09-09T10:08:27;95876.25;;;20.69;55.30
73564;BME280;61834;50.196;6.454;2022-09-09T10:13:47;95876.53;;;20.71;55.12
73564;BME280;61834;50.196;6.454;2022-09-09T10:19:04;95884.88;;;20.71;55.02
73564;BME280;61834;50.196;6.454;2022-09-09T10:27:03;95880.88;;;20.72;55.00
73564;BME280;61834;50.196;6.454;2022-09-09T10:29:44;95880.09;;;20.72;55.10
73564;BME280;61834;50.196;6.454;2022-09-09T10:34:58;95876.53;;;20.71;55.30
73564;BME280;61834;50.196;6.454;2022-09-09T10:37:40;95884.13;;;20.71;55.31
73564;BME280;61834;50.196;6.454;2022-09-09T10:42:43;95878.56;;;20.71;55.26
73564;BME280;61834;50.196;6.454;2022-09-09T10:45:32;95876.25;;;20.69;55.18
73564;BME280;61834;50.196;6.454;2022-09-09T10:48:31;95870.69;;;20.69;55.48
73564;BME280;61834;50.196;6.454;2022-09-09T10:51:07;95872.69;;;20.69;55.22
73564;BME280;61834;50.196;6.454;2022-09-09T10:53:49;95869.13;;;20.68;55.43
73564;BME280;61834;50.196;6.454;2022-09-09T10:56:20;95876.25;;;20.69;55.43
73564;BME280;61834;50.196;6.454;2022-09-09T10:59:05;95874.22;;;20.70;55.12
73564;BME280;61834;50.196;6.454;2022-09-09T11:06:48;95866.66;;;20.70;55.05
73564;BME280;61834;50.196;6.454;2022-09-09T11:09:21;95870.22;;;20.71;55.13
73564;BME280;61834;50.196;6.454;2022-09-09T11:11:57;95861.09;;;20.70;55.28
73564;BME280;61834;50.196;6.454;2022-09-09T11:14:54;95856.63;;;20.73;55.20
73564;BME280;61834;50.196;6.454;2022-09-09T11:17:35;95856.91;;;20.75;55.03
73564;BME280;61834;50.196;6.454;2022-09-09T11:20:05;95853.06;;;20.72;55.00
73564;BME280;61834;50.196;6.454;2022-09-09T11:22:36;95850.13;;;20.76;54.93
73564;BME280;61834;50.196;6.454;2022-09-09T11:25:21;95846.88;;;20.77;55.11
73564;BME280;61834;50.196;6.454;2022-09-09T11:39:02;95836.97;;;20.76;55.13
73564;BME280;61834;50.196;6.454;2022-09-09T11:41:34;95841.00;;;20.75;54.86
73564;BME280;61834;50.196;6.454;2022-09-09T11:44:10;95831.13;;;20.74;54.95
73564;BME280;61834;50.196;6.454;2022-09-09T11:46:38;95828.34;;;20.74;55.28
73564;BME280;61834;50.196;6.454;2022-09-09T11:49:05;95834.38;;;20.73;55.37
73564;BME280;61834;50.196;6.454;2022-09-09T11:51:33;95831.59;;;20.73;55.17
73564;BME280;61834;50.196;6.454;2022-09-09T11:54:01;95841.16;;;20.72;55.26
73564;BME280;61834;50.196;6.454;2022-09-09T11:56:42;95826.47;;;20.71;54.98
73564;BME280;61834;50.196;6.454;2022-09-09T12:07:18;95831.75;;;20.69;55.29
73564;BME280;61834;50.196;6.454;2022-09-09T12:10:18;95842.88;;;20.69;55.44
73564;BME280;61834;50.196;6.454;2022-09-09T12:12:37;95832.50;;;20.70;55.20
73564;BME280;61834;50.196;6.454;2022-09-09T12:15:24;95836.53;;;20.69;55.41
73564;BME280;61834;50.196;6.454;2022-09-09T12:17:53;95856.78;;;20.69;55.45
73564;BME280;61834;50.196;6.454;2022-09-09T12:20:36;95858.31;;;20.70;55.61
73564;BME280;61834;50.196;6.454;2022-09-09T12:28:22;95857.25;;;20.68;55.42
73564;BME280;61834;50.196;6.454;2022-09-09T12:33:34;95872.34;;;20.67;55.39
73564;BME280;61834;50.196;6.454;2022-09-09T12:36:01;95881.94;;;20.66;55.58
73564;BME280;61834;50.196;6.454;2022-09-09T12:38:35;95870.03;;;20.65;55.63
73564;BME280;61834;50.196;6.454;2022-09-09T12:41:01;95879.16;;;20.66;55.50
73564;BME280;61834;50.196;6.454;2022-09-09T12:43:28;95885.94;;;20.65;55.67
73564;BME280;61834;50.196;6.454;2022-09-09T12:46:00;95871.56;;;20.66;55.35
73564;BME280;61834;50.196;6.454;2022-09-09T12:48:38;95874.34;;;20.66;55.28
73564;BME280;61834;50.196;6.454;2022-09-09T12:51:16;95874.34;;;20.66;55.49
73564;BME280;61834;50.196;6.454;2022-09-09T12:53:42;95869.56;;;20.67;55.61
73564;BME280;61834;50.196;6.454;2022-09-09T12:56:18;95868.66;;;20.70;55.51
73564;BME280;61834;50.196;6.454;2022-09-09T12:58:47;95861.41;;;20.72;55.47
73564;BME280;61834;50.196;6.454;2022-09-09T13:01:28;95851.06;;;20.73;55.43
73564;BME280;61834;50.196;6.454;2022-09-09T13:03:55;95850.28;;;20.72;55.36
73564;BME280;61834;50.196;6.454;2022-09-09T13:06:22;95846.72;;;20.72;55.27
73564;BME280;61834;50.196;6.454;2022-09-09T13:08:50;95845.66;;;20.69;55.65
73564;BME280;61834;50.196;6.454;2022-09-09T13:11:20;95852.44;;;20.68;55.60
73564;BME280;61834;50.196;6.454;2022-09-09T13:13:53;95841.31;;;20.68;55.50
73564;BME280;61834;50.196;6.454;2022-09-09T13:16:30;95849.97;;;20.70;55.41
73564;BME280;61834;50.196;6.454;2022-09-09T13:19:00;95851.81;;;20.73;55.49
73564;BME280;61834;50.196;6.454;2022-09-09T13:21:38;95850.88;;;20.76;55.58
73564;BME280;61834;50.196;6.454;2022-09-09T13:24:25;95849.03;;;20.73;55.40
73564;BME280;61834;50.196;6.454;2022-09-09T13:26:55;95844.72;;;20.72;55.66
73564;BME280;61834;50.196;6.454;2022-09-09T13:29:21;95843.94;;;20.72;55.99
73564;BME280;61834;50.196;6.454;2022-09-09T13:31:53;95847.19;;;20.70;55.58
73564;BME280;61834;50.196;6.454;2022-09-09T13:34:31;95844.88;;;20.69;55.71
73564;BME280;61834;50.196;6.454;2022-09-09T13:37:05;95832.97;;;20.68;55.71
73564;BME280;61834;50.196;6.454;2022-09-09T13:39:35;95830.19;;;20.68;55.79
73564;BME280;61834;50.196;6.454;2022-09-09T13:42:02;95834.97;;;20.68;56.04
73564;BME280;61834;50.196;6.454;2022-09-09T13:44:35;95835.41;;;20.66;56.18
73564;BME280;61834;50.196;6.454;2022-09-09T13:47:05;95827.84;;;20.67;55.83
73564;BME280;61834;50.196;6.454;2022-09-09T13:49:31;95827.84;;;20.67;56.04
73564;BME280;61834;50.196;6.454;2022-09-09T13:52:24;95824.59;;;20.68;56.04
73564;BME280;61834;50.196;6.454;2022-09-09T13:54:52;95822.94;;;20.71;55.91
73564;BME280;61834;50.196;6.454;2022-09-09T13:57:21;95822.94;;;20.71;55.76
73564;BME280;61834;50.196;6.454;2022-09-09T13:59:48;95822.16;;;20.70;55.90
73564;BME280;61834;50.196;6.454;2022-09-09T14:02:15;95821.38;;;20.70;56.00
73564;BME280;61834;50.196;6.454;2022-09-09T14:04:42;95823.06;;;20.67;55.99
73564;BME280;61834;50.196;6.454;2022-09-09T14:07:14;95812.25;;;20.69;56.08
73564;BME280;61834;50.196;6.454;2022-09-09T14:09:40;95815.81;;;20.70;56.05
73564;BME280;61834;50.196;6.454;2022-09-09T14:12:10;95823.69;;;20.71;56.07
73564;BME280;61834;50.196;6.454;2022-09-09T14:14:36;95824.94;;;20.70;55.90
73564;BME280;61834;50.196;6.454;2022-09-09T14:17:01;95822.94;;;20.71;55.92
73564;BME280;61834;50.196;6.454;2022-09-09T14:19:27;95821.38;;;20.70;56.04
73564;BME280;61834;50.196;6.454;2022-09-09T14:21:52;95826.03;;;20.73;55.76
73564;BME280;61834;50.196;6.454;2022-09-09T14:24:17;95828.03;;;20.72;56.03
73564;BME280;61834;50.196;6.454;2022-09-09T14:26:43;95831.59;;;20.73;56.23
73564;BME280;61834;50.196;6.454;2022-09-09T14:29:08;95835.13;;;20.73;56.00
73564;BME280;61834;50.196;6.454;2022-09-09T14:31:33;95828.81;;;20.73;55.84
73564;BME280;61834;50.196;6.454;2022-09-09T14:33:59;95818.91;;;20.72;56.15
73564;BME280;61834;50.196;6.454;2022-09-09T14:36:24;95818.13;;;20.71;56.15
73564;BME280;61834;50.196;6.454;2022-09-09T14:38:51;95822.47;;;20.72;56.18
73564;BME280;61834;50.196;6.454;2022-09-09T14:41:18;95821.22;;;20.73;55.91
73564;BME280;61834;50.196;6.454;2022-09-09T14:43:44;95817.69;;;20.73;56.14
73564;BME280;61834;50.196;6.454;2022-09-09T14:46:17;95825.25;;;20.72;55.94
73564;BME280;61834;50.196;6.454;2022-09-09T14:48:43;95827.56;;;20.74;56.16
73564;BME280;61834;50.196;6.454;2022-09-09T14:51:11;95831.13;;;20.74;55.99
73564;BME280;61834;50.196;6.454;2022-09-09T14:53:39;95836.38;;;20.72;55.89
73564;BME280;61834;50.196;6.454;2022-09-09T14:56:10;95836.38;;;20.72;56.04
73564;BME280;61834;50.196;6.454;2022-09-09T14:58:36;95834.81;;;20.71;56.16
73564;BME280;61834;50.196;6.454;2022-09-09T15:01:11;95838.38;;;20.72;56.26
73564;BME280;61834;50.196;6.454;2022-09-09T15:03:48;95854.28;;;20.71;56.11
73564;BME280;61834;50.196;6.454;2022-09-09T15:06:14;95850.75;;;20.71;56.23
73564;BME280;61834;50.196;6.454;2022-09-09T15:08:42;95841.63;;;20.70;56.18
73564;BME280;61834;50.196;6.454;2022-09-09T15:11:08;95845.19;;;20.71;56.07
73564;BME280;61834;50.196;6.454;2022-09-09T15:13:34;95843.16;;;20.71;56.32
73564;BME280;61834;50.196;6.454;2022-09-09T15:16:14;95847.19;;;20.70;56.43
73564;BME280;61834;50.196;6.454;2022-09-09T15:18:40;95848.72;;;20.71;56.45
73564;BME280;61834;50.196;6.454;2022-09-09T15:21:11;95854.00;;;20.69;56.53